Time;durP1;ratioP1;P1;durP2;ratioP2;P2;SDS_P1;SDS_P2;PMS_P1;PMS_P2;Temp;Humidity;BMP_temperature;BMP_pressure;BME280_temperature;BME280_humidity;BME280_pressure;Samples;Min_cycle;Max_cycle;Signal;HPM_P1;HPM_P2
2024/01/26 00:01:55;;;;;;;;;;;179.20;2252.80;;;;;;5113824;28;20278;-76
2024/01/26 00:04:21;;;;;;;;;;;179.20;2252.80;;;;;;5103125;28;19916;-77
2024/01/26 00:06:47;;;;;;;;;;;179.30;2252.80;;;;;;5110849;28;19908;-75
2024/01/26 00:09:13;;;;;;;;;;;179.20;2252.80;;;;;;5111222;28;19926;-76
2024/01/26 00:11:39;;;;;;;;;;;179.30;2252.80;;;;;;5098772;28;19908;-76
2024/01/26 00:14:05;;;;;;;;;;;179.20;2252.80;;;;;;5105259;28;19915;-76
2024/01/26 00:16:31;;;;;;;;;;;179.20;2252.80;;;;;;5109853;28;19912;-77
2024/01/26 00:18:56;;;;;;;;;;;179.20;2252.80;;;;;;5104077;28;20372;-76
2024/01/26 00:21:22;;;;;;;;;;;179.20;2252.80;;;;;;5110217;28;20258;-76
2024/01/26 00:23:48;;;;;;;;;;;154.50;2252.80;;;;;;5108717;28;19927;-76
2024/01/26 00:26:13;;;;;;;;;;;154.50;2252.80;;;;;;5099738;28;19908;-76
2024/01/26 00:28:39;;;;;;;;;;;179.20;2252.80;;;;;;5110884;28;20392;-76
2024/01/26 00:31:04;;;;;;;;;;;179.20;2252.80;;;;;;5107753;28;19904;-76
2024/01/26 00:33:31;;;;;;;;;;;179.20;2252.80;;;;;;5099799;28;19961;-76
2024/01/26 00:35:56;;;;;;;;;;;179.20;2252.80;;;;;;5109492;28;19907;-76
2024/01/26 00:38:22;;;;;;;;;;;179.30;2252.80;;;;;;5105570;28;19968;-77
2024/01/26 00:40:47;;;;;;;;;;;179.30;2252.80;;;;;;5114421;28;20014;-75
2024/01/26 00:43:13;;;;;;;;;;;179.30;2252.80;;;;;;5101700;28;19912;-76
2024/01/26 00:45:39;;;;;;;;;;;179.30;2252.80;;;;;;5105607;28;19908;-76
2024/01/26 00:48:05;;;;;;;;;;;179.30;2252.80;;;;;;5112313;28;19911;-78
2024/01/26 00:50:30;;;;;;;;;;;179.30;2252.80;;;;;;5125823;27;19911;-76
2024/01/26 00:52:57;;;;;;;;;;;179.40;2252.80;;;;;;5109063;28;20010;-75
2024/01/26 00:55:23;;;;;;;;;;;179.40;2252.80;;;;;;5106164;28;19955;-76
2024/01/26 00:57:48;;;;;;;;;;;179.40;2252.80;;;;;;5114676;28;19915;-75
2024/01/26 01:00:14;;;;;;;;;;;179.40;2252.80;;;;;;5106363;28;19908;-79
2024/01/26 01:02:40;;;;;;;;;;;179.40;2252.80;;;;;;5100521;28;20003;-76
2024/01/26 01:05:06;;;;;;;;;;;179.40;2252.80;;;;;;5111898;28;19915;-76
2024/01/26 01:07:32;;;;;;;;;;;179.40;2252.80;;;;;;5106619;28;20362;-76
2024/01/26 01:09:57;;;;;;;;;;;179.30;2252.80;;;;;;5112359;28;19914;-76
2024/01/26 01:12:23;;;;;;;;;;;179.30;2252.80;;;;;;5100966;28;19908;-76
2024/01/26 01:14:49;;;;;;;;;;;179.20;2252.80;;;;;;5106632;28;19915;-76
2024/01/26 01:17:14;;;;;;;;;;;179.30;2252.80;;;;;;5109118;28;19954;-75
2024/01/26 01:19:40;;;;;;;;;;;179.20;2252.80;;;;;;5106285;28;19911;-77
2024/01/26 01:22:05;;;;;;;;;;;179.20;2252.80;;;;;;5107778;28;19908;-76
2024/01/26 01:24:31;;;;;;;;;;;179.20;2252.80;;;;;;5099151;28;19973;-77
2024/01/26 01:26:57;;;;;;;;;;;154.50;2252.80;;;;;;5108096;28;19907;-76
2024/01/26 01:29:24;;;;;;;;;;;154.50;2252.80;;;;;;5106350;28;20372;-76
2024/01/26 01:31:49;;;;;;;;;;;154.50;2252.80;;;;;;5102216;28;19914;-79
2024/01/26 01:34:15;;;;;;;;;;;154.40;2252.80;;;;;;5104813;28;19908;-76
2024/01/26 01:36:40;;;;;;;;;;;154.30;2252.80;;;;;;5110412;28;19908;-77
2024/01/26 01:39:07;;;;;;;;;;;154.10;2252.80;;;;;;5113885;28;19911;-76
2024/01/26 01:41:33;;;;;;;;;;;154.10;2252.80;;;;;;5112073;28;20008;-79
2024/01/26 01:43:58;;;;;;;;;;;154.10;2252.80;;;;;;5095370;28;20392;-76
2024/01/26 01:46:24;;;;;;;;;;;154.10;2252.80;;;;;;5093661;28;19911;-77
2024/01/26 01:48:50;;;;;;;;;;;154.10;2252.80;;;;;;5095156;28;19939;-77
2024/01/26 01:51:16;;;;;;;;;;;154.20;2252.80;;;;;;5094735;28;20385;-77
2024/01/26 01:53:42;;;;;;;;;;;154.10;2252.80;;;;;;5094650;28;19920;-77
2024/01/26 01:56:12;;;;;;;;;;;154.10;2252.80;;;;;;5093701;28;19908;-78
2024/01/26 01:58:38;;;;;;;;;;;153.90;2252.80;;;;;;5094485;28;19904;-78
2024/01/26 02:01:04;;;;;;;;;;;153.90;2252.80;;;;;;5113271;28;19957;-76
2024/01/26 02:03:30;;;;;;;;;;;154.00;2252.80;;;;;;5113663;28;19916;-79
2024/01/26 02:05:56;;;;;;;;;;;154.00;2252.80;;;;;;5113102;28;19973;-77
2024/01/26 02:08:21;;;;;;;;;;;153.90;2252.80;;;;;;5113030;28;19911;-77
2024/01/26 02:10:47;;;;;;;;;;;154.00;2252.80;;;;;;5113688;28;19904;-77
2024/01/26 02:13:12;;;;;;;;;;;153.80;2252.80;;;;;;5113684;28;19963;-76
2024/01/26 02:15:38;;;;;;;;;;;153.80;2252.80;;;;;;5105122;28;19908;-76
2024/01/26 02:18:04;;;;;;;;;;;153.90;2252.80;;;;;;5108052;28;19904;-77
2024/01/26 02:20:29;;;;;;;;;;;154.00;2252.80;;;;;;5113322;28;20364;-77
2024/01/26 02:22:55;;;;;;;;;;;153.90;2252.80;;;;;;5112376;28;19990;-77
2024/01/26 02:25:21;;;;;;;;;;;153.80;2252.80;;;;;;5114601;28;19911;-77
2024/01/26 02:27:46;;;;;;;;;;;153.90;2252.80;;;;;;5113136;28;19954;-77
2024/01/26 02:30:12;;;;;;;;;;;153.90;2252.80;;;;;;5114696;28;19994;-76
2024/01/26 02:32:37;;;;;;;;;;;153.90;2252.80;;;;;;5130341;27;19956;-78
2024/01/26 02:35:03;;;;;;;;;;;154.00;2252.80;;;;;;5113104;28;19925;-76
2024/01/26 02:37:29;;;;;;;;;;;153.90;2252.80;;;;;;5114560;27;19904;-78
2024/01/26 02:39:55;;;;;;;;;;;153.80;2252.80;;;;;;5114211;28;19910;-77
2024/01/26 02:42:21;;;;;;;;;;;153.80;2252.80;;;;;;5112971;28;19910;-79
2024/01/26 02:44:46;;;;;;;;;;;153.80;2252.80;;;;;;5114447;28;20355;-76
2024/01/26 02:47:12;;;;;;;;;;;153.80;2252.80;;;;;;5113919;28;19904;-76
2024/01/26 02:49:40;;;;;;;;;;;153.70;2252.80;;;;;;5113056;28;19960;-76
2024/01/26 02:52:05;;;;;;;;;;;153.70;2252.80;;;;;;5112088;28;19908;-79
2024/01/26 02:54:31;;;;;;;;;;;153.60;2252.80;;;;;;5114082;28;19912;-79
2024/01/26 02:56:57;;;;;;;;;;;153.60;2252.80;;;;;;5112810;28;20289;-76
2024/01/26 02:59:23;;;;;;;;;;;128.90;2252.80;;;;;;5112948;28;19926;-76
2024/01/26 03:01:48;;;;;;;;;;;153.60;2252.80;;;;;;5112668;28;20276;-76
2024/01/26 03:04:14;;;;;;;;;;;153.60;2252.80;;;;;;5112384;28;20365;-76
2024/01/26 03:06:40;;;;;;;;;;;153.60;2252.80;;;;;;5112489;28;19998;-76
2024/01/26 03:09:07;;;;;;;;;;;153.60;2252.80;;;;;;5113850;28;20264;-77
2024/01/26 03:11:39;;;;;;;;;;;153.60;2252.80;;;;;;5111899;28;20279;-77
2024/01/26 03:14:08;;;;;;;;;;;128.90;2252.80;;;;;;5113950;28;19903;-77
2024/01/26 03:16:34;;;;;;;;;;;153.60;2252.80;;;;;;5115238;28;20307;-76
2024/01/26 03:18:59;;;;;;;;;;;153.60;2252.80;;;;;;5116694;28;19939;-77
2024/01/26 03:21:25;;;;;;;;;;;153.60;2252.80;;;;;;5116332;28;20340;-76
2024/01/26 03:23:51;;;;;;;;;;;153.60;2252.80;;;;;;5117644;28;19911;-76
2024/01/26 03:26:17;;;;;;;;;;;128.90;2252.80;;;;;;5108223;28;19907;-76
2024/01/26 03:28:42;;;;;;;;;;;128.90;2252.80;;;;;;5103921;28;20006;-76
2024/01/26 03:31:08;;;;;;;;;;;128.90;2252.80;;;;;;5101819;28;19908;-76
2024/01/26 03:33:34;;;;;;;;;;;128.90;2252.80;;;;;;5109016;28;19911;-76
2024/01/26 03:35:59;;;;;;;;;;;128.90;2252.80;;;;;;5114262;28;19915;-77
2024/01/26 03:38:25;;;;;;;;;;;128.90;2252.80;;;;;;5102067;28;19915;-77
2024/01/26 03:40:50;;;;;;;;;;;128.80;2252.80;;;;;;5098685;28;19904;-77
2024/01/26 03:43:16;;;;;;;;;;;128.80;2252.80;;;;;;5104918;28;19908;-79
2024/01/26 03:45:41;;;;;;;;;;;128.70;2252.80;;;;;;5111584;28;19915;-76
2024/01/26 03:48:07;;;;;;;;;;;128.60;2252.80;;;;;;5107369;27;20387;-78
2024/01/26 03:50:33;;;;;;;;;;;128.60;2252.80;;;;;;5097968;28;19910;-76
2024/01/26 03:52:59;;;;;;;;;;;128.60;2252.80;;;;;;5108387;28;20384;-77
2024/01/26 03:55:24;;;;;;;;;;;128.50;2252.80;;;;;;5100454;28;19915;-78
2024/01/26 03:57:50;;;;;;;;;;;128.40;2252.80;;;;;;5104194;28;19904;-76
2024/01/26 04:00:16;;;;;;;;;;;128.40;2252.80;;;;;;5101417;28;19915;-76
2024/01/26 04:02:41;;;;;;;;;;;128.40;2252.80;;;;;;5105440;28;19908;-77
2024/01/26 04:05:08;;;;;;;;;;;128.40;2252.80;;;;;;5108926;28;19941;-79
2024/01/26 04:07:34;;;;;;;;;;;128.50;2252.80;;;;;;5103638;28;19910;-76
2024/01/26 04:10:00;;;;;;;;;;;128.50;2252.80;;;;;;5106527;28;19904;-79
2024/01/26 04:12:26;;;;;;;;;;;128.50;2252.80;;;;;;5106696;28;19911;-78
2024/01/26 04:14:51;;;;;;;;;;;128.50;2252.80;;;;;;5101071;28;19915;-77
2024/01/26 04:17:17;;;;;;;;;;;128.60;2252.80;;;;;;5099620;28;19908;-78
2024/01/26 04:19:42;;;;;;;;;;;128.60;2252.80;;;;;;5099680;28;20434;-76
2024/01/26 04:22:08;;;;;;;;;;;128.60;2252.80;;;;;;5105089;28;20061;-77
2024/01/26 04:24:34;;;;;;;;;;;128.60;2252.80;;;;;;5096717;28;20289;-77
2024/01/26 04:27:00;;;;;;;;;;;128.60;2252.80;;;;;;5103265;28;19907;-77
2024/01/26 04:29:26;;;;;;;;;;;128.60;2252.80;;;;;;5098012;28;20338;-77
2024/01/26 04:31:52;;;;;;;;;;;128.60;2252.80;;;;;;5104184;28;20018;-76
2024/01/26 04:34:17;;;;;;;;;;;128.60;2252.80;;;;;;5111005;28;20281;-77
2024/01/26 04:36:49;;;;;;;;;;;128.70;2252.80;;;;;;5104948;28;19911;-76
2024/01/26 04:39:15;;;;;;;;;;;128.70;2252.80;;;;;;5099632;28;19911;-76
2024/01/26 04:41:41;;;;;;;;;;;128.60;2252.80;;;;;;5102745;28;19903;-76
2024/01/26 04:44:07;;;;;;;;;;;128.70;2252.80;;;;;;5107756;28;20391;-77
2024/01/26 04:46:33;;;;;;;;;;;128.70;2252.80;;;;;;5102975;28;19908;-76
2024/01/26 04:48:59;;;;;;;;;;;128.70;2252.80;;;;;;5104789;28;19907;-76
2024/01/26 04:51:24;;;;;;;;;;;128.70;2252.80;;;;;;5108567;28;20373;-76
2024/01/26 04:53:50;;;;;;;;;;;128.70;2252.80;;;;;;5105017;28;19927;-78
2024/01/26 04:56:15;;;;;;;;;;;128.70;2252.80;;;;;;5105820;28;19911;-76
2024/01/26 04:58:41;;;;;;;;;;;128.50;2252.80;;;;;;5111265;28;20420;-79
2024/01/26 05:01:07;;;;;;;;;;;128.50;2252.80;;;;;;5107176;28;19904;-77
2024/01/26 05:03:33;;;;;;;;;;;128.40;2252.80;;;;;;5102838;28;19999;-77
2024/01/26 05:05:59;;;;;;;;;;;128.30;2252.80;;;;;;5098720;28;19965;-76
2024/01/26 05:08:24;;;;;;;;;;;128.20;2252.80;;;;;;5104682;28;19914;-78
2024/01/26 05:10:51;;;;;;;;;;;128.30;2252.80;;;;;;5100804;28;19990;-77
2024/01/26 05:13:16;;;;;;;;;;;128.30;2252.80;;;;;;5097070;28;19908;-75
2024/01/26 05:15:42;;;;;;;;;;;128.30;2252.80;;;;;;5101143;28;19991;-76
2024/01/26 05:18:08;;;;;;;;;;;128.30;2252.80;;;;;;5106517;28;20393;-78
2024/01/26 05:20:34;;;;;;;;;;;128.30;2252.80;;;;;;5104373;28;19915;-78
2024/01/26 05:22:59;;;;;;;;;;;128.30;2252.80;;;;;;5099723;28;19931;-77
2024/01/26 05:25:25;;;;;;;;;;;128.20;2252.80;;;;;;5102493;28;19912;-77
2024/01/26 05:27:50;;;;;;;;;;;128.40;2252.80;;;;;;5105418;28;19960;-76
2024/01/26 05:30:16;;;;;;;;;;;128.40;2252.80;;;;;;5102485;28;19930;-77
2024/01/26 05:32:43;;;;;;;;;;;128.40;2252.80;;;;;;5098608;28;20392;-79
2024/01/26 05:35:09;;;;;;;;;;;128.30;2252.80;;;;;;5101278;28;19911;-77
2024/01/26 05:37:35;;;;;;;;;;;128.20;2252.80;;;;;;5099256;28;19941;-76
2024/01/26 05:40:03;;;;;;;;;;;128.20;2252.80;;;;;;5104014;28;20360;-76
2024/01/26 05:42:29;;;;;;;;;;;128.20;2252.80;;;;;;5096530;28;19911;-77
2024/01/26 05:44:55;;;;;;;;;;;128.10;2252.80;;;;;;5100727;28;20352;-75
2024/01/26 05:47:20;;;;;;;;;;;128.10;2252.80;;;;;;5104375;28;19950;-76
2024/01/26 05:49:46;;;;;;;;;;;128.10;2252.80;;;;;;5097943;28;19908;-76
2024/01/26 05:52:12;;;;;;;;;;;128.00;2252.80;;;;;;5109785;28;19962;-77
2024/01/26 05:54:37;;;;;;;;;;;128.10;2252.80;;;;;;5097238;28;19919;-77
2024/01/26 05:57:03;;;;;;;;;;;128.10;2252.80;;;;;;5103798;28;19907;-76
2024/01/26 05:59:28;;;;;;;;;;;128.10;2252.80;;;;;;5102698;28;19957;-78
2024/01/26 06:01:54;;;;;;;;;;;128.10;2252.80;;;;;;5109578;28;20325;-77
2024/01/26 06:04:20;;;;;;;;;;;128.20;2252.80;;;;;;5095639;28;19920;-77
2024/01/26 06:06:45;;;;;;;;;;;128.20;2252.80;;;;;;5107094;28;19903;-76
2024/01/26 06:09:11;;;;;;;;;;;128.20;2252.80;;;;;;5101944;28;19949;-79
2024/01/26 06:11:36;;;;;;;;;;;128.20;2252.80;;;;;;5105595;28;19914;-77
2024/01/26 06:14:02;;;;;;;;;;;128.20;2252.80;;;;;;5102667;28;19907;-76
2024/01/26 06:16:28;;;;;;;;;;;128.30;2252.80;;;;;;5099095;28;19908;-76
2024/01/26 06:18:53;;;;;;;;;;;128.20;2252.80;;;;;;5100274;28;19960;-79
2024/01/26 06:21:19;;;;;;;;;;;128.30;2252.80;;;;;;5099094;28;19908;-76
2024/01/26 06:23:45;;;;;;;;;;;128.40;2252.80;;;;;;5105930;27;19919;-76
2024/01/26 06:26:10;;;;;;;;;;;128.40;2252.80;;;;;;5106993;28;19912;-76
2024/01/26 06:28:36;;;;;;;;;;;128.40;2252.80;;;;;;5103264;28;20253;-76
2024/01/26 06:31:02;;;;;;;;;;;128.40;2252.80;;;;;;5098533;28;19908;-77
2024/01/26 06:33:27;;;;;;;;;;;128.40;2252.80;;;;;;5106544;28;19929;-76
2024/01/26 06:35:53;;;;;;;;;;;128.50;2252.80;;;;;;5097549;28;19915;-78
2024/01/26 06:38:18;;;;;;;;;;;128.50;2252.80;;;;;;5102062;28;19943;-75
2024/01/26 06:40:46;;;;;;;;;;;128.50;2252.80;;;;;;5100197;28;19912;-79
2024/01/26 06:43:15;;;;;;;;;;;128.50;2252.80;;;;;;5102020;28;19951;-76
2024/01/26 06:45:40;;;;;;;;;;;128.50;2252.80;;;;;;5098288;28;19914;-76
2024/01/26 06:48:06;;;;;;;;;;;128.60;2252.80;;;;;;5103857;28;20002;-77
2024/01/26 06:50:33;;;;;;;;;;;128.60;2252.80;;;;;;5100176;28;19908;-75
2024/01/26 06:52:58;;;;;;;;;;;128.60;2252.80;;;;;;5096703;28;19979;-75
2024/01/26 06:55:24;;;;;;;;;;;128.70;2252.80;;;;;;5101720;28;19969;-75
2024/01/26 06:57:49;;;;;;;;;;;128.70;2252.80;;;;;;5108443;28;19964;-77
2024/01/26 07:00:16;;;;;;;;;;;128.80;2252.80;;;;;;5105150;28;20306;-76
2024/01/26 07:02:42;;;;;;;;;;;153.60;2252.80;;;;;;5099053;28;19908;-76
2024/01/26 07:05:07;;;;;;;;;;;153.60;2252.80;;;;;;5105093;28;19916;-76
2024/01/26 07:07:33;;;;;;;;;;;153.70;2252.80;;;;;;5118136;28;19908;-76
2024/01/26 07:09:59;;;;;;;;;;;153.80;2252.80;;;;;;5097713;28;19976;-75
2024/01/26 07:12:24;;;;;;;;;;;154.00;2252.80;;;;;;5104700;28;19908;-76
2024/01/26 07:14:50;;;;;;;;;;;154.10;2252.80;;;;;;5100185;28;19912;-77
2024/01/26 07:17:16;;;;;;;;;;;154.10;2252.80;;;;;;5099937;28;20369;-78
2024/01/26 07:19:41;;;;;;;;;;;154.20;2252.80;;;;;;5100819;28;19911;-78
2024/01/26 07:22:07;;;;;;;;;;;154.20;2252.80;;;;;;5103594;28;19908;-76
2024/01/26 07:24:33;;;;;;;;;;;154.20;2252.80;;;;;;5104028;28;19923;-77
2024/01/26 07:26:58;;;;;;;;;;;154.20;2252.80;;;;;;5081776;28;19916;-78
2024/01/26 07:29:24;;;;;;;;;;;154.20;2252.80;;;;;;5107719;28;19908;-76
2024/01/26 07:31:50;;;;;;;;;;;154.10;2252.80;;;;;;5095338;28;19976;-78
2024/01/26 07:34:16;;;;;;;;;;;154.10;2252.80;;;;;;5108470;28;20021;-78
2024/01/26 07:36:42;;;;;;;;;;;154.10;2252.80;;;;;;5106093;28;19924;-81
2024/01/26 07:39:07;;;;;;;;;;;154.10;2252.80;;;;;;5103354;28;19911;-78
2024/01/26 07:41:33;;;;;;;;;;;154.20;2252.80;;;;;;5106091;28;19911;-82
2024/01/26 07:44:00;;;;;;;;;;;154.20;2252.80;;;;;;5108305;28;20372;-79
2024/01/26 07:46:25;;;;;;;;;;;154.30;2252.80;;;;;;5099948;28;19991;-81
2024/01/26 07:48:51;;;;;;;;;;;154.50;2252.80;;;;;;5101135;28;19908;-79
2024/01/26 07:51:16;;;;;;;;;;;154.50;2252.80;;;;;;5097904;28;19937;-80
2024/01/26 07:53:42;;;;;;;;;;;179.20;2252.80;;;;;;5110882;28;19924;-86
2024/01/26 07:56:08;;;;;;;;;;;179.40;2252.80;;;;;;5106440;28;20048;-80
2024/01/26 07:58:33;;;;;;;;;;;179.60;2252.80;;;;;;5094448;28;19904;-80
2024/01/26 08:00:59;;;;;;;;;;;179.50;2252.80;;;;;;5109611;28;19951;-81
2024/01/26 08:03:24;;;;;;;;;;;179.60;2252.80;;;;;;5105996;28;19911;-83
2024/01/26 08:05:50;;;;;;;;;;;179.60;2252.80;;;;;;5112578;28;20433;-82
2024/01/26 08:08:16;;;;;;;;;;;179.60;2252.80;;;;;;5120821;27;19956;-78
2024/01/26 08:10:41;;;;;;;;;;;179.60;2252.80;;;;;;5116035;28;19911;-80
2024/01/26 08:13:07;;;;;;;;;;;179.60;2252.80;;;;;;5109584;28;19930;-79
2024/01/26 08:15:32;;;;;;;;;;;179.60;2252.80;;;;;;5112400;28;20003;-78
2024/01/26 08:17:58;;;;;;;;;;;179.60;2252.80;;;;;;5108565;28;19908;-78
2024/01/26 08:20:23;;;;;;;;;;;179.70;2252.80;;;;;;5103583;28;19908;-78
2024/01/26 08:22:49;;;;;;;;;;;179.70;2252.80;;;;;;5111746;28;19950;-79
2024/01/26 08:25:15;;;;;;;;;;;179.70;2252.80;;;;;;5104529;28;20337;-81
2024/01/26 08:27:40;;;;;;;;;;;179.70;2252.80;;;;;;5111959;28;19908;-78
2024/01/26 08:30:06;;;;;;;;;;;179.70;2252.80;;;;;;5106524;28;20384;-79
2024/01/26 08:32:32;;;;;;;;;;;179.80;2252.80;;;;;;5107688;28;19939;-76
2024/01/26 08:34:57;;;;;;;;;;;179.90;2252.80;;;;;;5113481;28;19908;-79
2024/01/26 08:37:23;;;;;;;;;;;179.90;2252.80;;;;;;5108571;28;19912;-78
2024/01/26 08:39:49;;;;;;;;;;;179.90;2252.80;;;;;;5101483;28;20344;-78
2024/01/26 08:42:14;;;;;;;;;;;180.00;2252.80;;;;;;5098985;28;20002;-77
2024/01/26 08:44:40;;;;;;;;;;;180.00;2252.80;;;;;;5107082;28;19931;-78
2024/01/26 08:47:05;;;;;;;;;;;180.10;2252.80;;;;;;5106410;28;20349;-79
2024/01/26 08:49:31;;;;;;;;;;;204.80;2252.80;;;;;;5102701;28;19904;-78
2024/01/26 08:51:58;;;;;;;;;;;180.10;2252.80;;;;;;5108055;28;20313;-78
2024/01/26 08:54:24;;;;;;;;;;;180.10;2252.80;;;;;;5101623;28;19920;-79
2024/01/26 08:56:49;;;;;;;;;;;204.80;2252.80;;;;;;5104466;28;19912;-79
2024/01/26 08:59:15;;;;;;;;;;;204.80;2252.80;;;;;;5103158;28;20017;-78
2024/01/26 09:01:41;;;;;;;;;;;204.80;2252.80;;;;;;5104080;28;19943;-78
2024/01/26 09:04:08;;;;;;;;;;;204.90;2252.80;;;;;;5097059;28;20109;-78
2024/01/26 09:06:36;;;;;;;;;;;204.80;2252.80;;;;;;5100883;28;19998;-77
2024/01/26 09:09:02;;;;;;;;;;;204.90;2252.80;;;;;;5107738;28;19907;-78
2024/01/26 09:11:28;;;;;;;;;;;204.90;2252.80;;;;;;5098673;28;19915;-79
2024/01/26 09:13:54;;;;;;;;;;;204.90;2252.80;;;;;;5097097;28;19908;-78
2024/01/26 09:16:20;;;;;;;;;;;205.00;2252.80;;;;;;5101504;28;20353;-79
2024/01/26 09:18:45;;;;;;;;;;;205.00;2252.80;;;;;;5103198;28;19908;-78
2024/01/26 09:21:11;;;;;;;;;;;205.10;2252.80;;;;;;5104052;28;20067;-79
2024/01/26 09:23:37;;;;;;;;;;;205.30;2252.80;;;;;;5109516;28;20457;-80
2024/01/26 09:26:03;;;;;;;;;;;205.40;2252.80;;;;;;5106760;28;19998;-77
2024/01/26 09:28:28;;;;;;;;;;;205.40;2252.80;;;;;;5104573;28;19951;-80
2024/01/26 09:30:54;;;;;;;;;;;205.50;2252.80;;;;;;5099920;28;19904;-84
2024/01/26 09:33:20;;;;;;;;;;;205.60;2252.80;;;;;;5101109;28;20012;-77
2024/01/26 09:35:46;;;;;;;;;;;205.70;2252.80;;;;;;5109416;28;19908;-77
2024/01/26 09:38:11;;;;;;;;;;;230.40;2252.80;;;;;;5104763;28;19908;-79
2024/01/26 09:40:38;;;;;;;;;;;230.50;2252.80;;;;;;5102982;28;19962;-79
2024/01/26 09:43:04;;;;;;;;;;;230.60;2252.80;;;;;;5107790;28;19907;-81
2024/01/26 09:45:30;;;;;;;;;;;230.70;2252.80;;;;;;5108550;28;19919;-79
2024/01/26 09:47:57;;;;;;;;;;;230.90;2252.80;;;;;;5112033;28;19911;-79
2024/01/26 09:50:22;;;;;;;;;;;231.00;2252.80;;;;;;5104056;28;19908;-77
2024/01/26 09:52:48;;;;;;;;;;;231.30;2252.80;;;;;;5102081;28;19984;-77
2024/01/26 09:55:15;;;;;;;;;;;231.30;2252.80;;;;;;5100073;28;20281;-78
2024/01/26 09:57:42;;;;;;;;;;;256.10;2252.80;;;;;;5102316;28;19904;-77
2024/01/26 10:00:10;;;;;;;;;;;256.40;2252.80;;;;;;5101952;28;19908;-77
2024/01/26 10:02:35;;;;;;;;;;;256.80;2252.80;;;;;;5100861;28;20404;-76
2024/01/26 10:05:01;;;;;;;;;;;256.80;2252.80;;;;;;5098722;28;20011;-78
2024/01/26 10:07:27;;;;;;;;;;;256.80;2252.80;;;;;;5111225;28;19903;-78
2024/01/26 10:09:52;;;;;;;;;;;281.60;2278.40;;;;;;5101233;28;20288;-78
2024/01/26 10:12:18;;;;;;;;;;;282.00;2278.40;;;;;;5110274;28;19914;-80
2024/01/26 10:14:43;;;;;;;;;;;282.40;2278.40;;;;;;5105817;28;19911;-79
2024/01/26 10:17:15;;;;;;;;;;;307.30;2278.40;;;;;;5106355;28;20250;-79
2024/01/26 10:19:40;;;;;;;;;;;307.40;2201.60;;;;;;5101409;28;19903;-80
2024/01/26 10:22:07;;;;;;;;;;;307.30;2278.40;;;;;;5103236;28;19961;-79
2024/01/26 10:24:33;;;;;;;;;;;307.70;2150.40;;;;;;5105221;28;20288;-78
2024/01/26 10:26:59;;;;;;;;;;;307.70;2124.80;;;;;;5107851;28;19912;-78
2024/01/26 10:29:24;;;;;;;;;;;308.00;2099.20;;;;;;5101149;28;19950;-79
2024/01/26 10:31:51;;;;;;;;;;;308.10;2073.60;;;;;;5109303;28;19911;-79
2024/01/26 10:34:17;;;;;;;;;;;333.00;2099.20;;;;;;5100544;28;19927;-80
2024/01/26 10:36:43;;;;;;;;;;;333.10;1996.80;;;;;;5109915;28;19904;-78
2024/01/26 10:39:13;;;;;;;;;;;332.90;2022.40;;;;;;5108924;28;19918;-80
2024/01/26 10:41:41;;;;;;;;;;;332.90;2022.40;;;;;;5105971;28;19912;-80
2024/01/26 10:44:09;;;;;;;;;;;333.00;2073.60;;;;;;5099991;28;19998;-79
2024/01/26 10:46:37;;;;;;;;;;;333.30;1996.80;;;;;;5101340;28;19915;-80
2024/01/26 10:49:03;;;;;;;;;;;333.10;1996.80;;;;;;5097848;28;19915;-78
2024/01/26 10:51:29;;;;;;;;;;;333.60;1971.20;;;;;;5102924;28;19908;-79
2024/01/26 10:53:55;;;;;;;;;;;358.40;1920.00;;;;;;5107648;28;20323;-78
2024/01/26 10:56:23;;;;;;;;;;;333.70;1894.40;;;;;;5101395;28;20341;-78
2024/01/26 10:58:48;;;;;;;;;;;333.70;1920.00;;;;;;5097908;28;19962;-78
2024/01/26 11:01:14;;;;;;;;;;;333.70;1868.80;;;;;;5104846;28;19904;-80
2024/01/26 11:03:40;;;;;;;;;;;358.40;1868.80;;;;;;5099913;28;20373;-78
2024/01/26 11:06:08;;;;;;;;;;;358.50;1894.40;;;;;;5101868;28;19908;-78
2024/01/26 11:08:34;;;;;;;;;;;358.50;1894.40;;;;;;5103008;28;19907;-78
2024/01/26 11:10:59;;;;;;;;;;;358.50;1868.80;;;;;;5103892;28;19915;-78
2024/01/26 11:13:25;;;;;;;;;;;358.40;1868.80;;;;;;5103216;28;19908;-78
2024/01/26 11:15:51;;;;;;;;;;;358.60;1868.80;;;;;;5107898;28;20002;-79
2024/01/26 11:18:24;;;;;;;;;;;358.90;1843.20;;;;;;5104030;28;19986;-76
2024/01/26 11:20:49;;;;;;;;;;;358.80;1843.20;;;;;;5098899;28;19919;-79
2024/01/26 11:23:15;;;;;;;;;;;358.70;1843.20;;;;;;5101854;28;19907;-78
2024/01/26 11:25:46;;;;;;;;;;;358.80;1843.20;;;;;;5102472;28;19966;-78
2024/01/26 11:28:15;;;;;;;;;;;358.80;1843.20;;;;;;5102833;28;19907;-80
2024/01/26 11:30:43;;;;;;;;;;;358.90;1817.60;;;;;;5099358;28;19908;-80
2024/01/26 11:33:16;;;;;;;;;;;358.80;1843.20;;;;;;5094317;28;20115;-78
2024/01/26 11:35:42;;;;;;;;;;;358.90;1843.20;;;;;;5104262;28;19912;-78
2024/01/26 11:38:08;;;;;;;;;;;358.80;1843.20;;;;;;5104471;28;19908;-79
2024/01/26 11:40:34;;;;;;;;;;;358.80;1843.20;;;;;;5105733;28;19947;-80
2024/01/26 11:42:59;;;;;;;;;;;358.50;1894.40;;;;;;5108939;28;19919;-80
2024/01/26 11:45:42;;;;;;;;;;;358.60;1868.80;;;;;;5103240;28;20010;-79
2024/01/26 11:48:08;;;;;;;;;;;358.50;1920.00;;;;;;5110519;28;19908;-78
2024/01/26 11:50:33;;;;;;;;;;;333.60;1894.40;;;;;;5109378;28;19908;-79
2024/01/26 11:52:59;;;;;;;;;;;358.50;1843.20;;;;;;5114111;28;19926;-78
2024/01/26 11:55:25;;;;;;;;;;;358.60;1843.20;;;;;;5100841;28;19977;-78
2024/01/26 11:57:51;;;;;;;;;;;358.70;1817.60;;;;;;5112203;28;19904;-79
2024/01/26 12:00:18;;;;;;;;;;;358.70;1843.20;;;;;;5113635;28;19914;-79
2024/01/26 12:02:44;;;;;;;;;;;358.90;1817.60;;;;;;5103864;28;19950;-80
2024/01/26 12:05:09;;;;;;;;;;;333.70;1843.20;;;;;;5110314;28;19980;-80
2024/01/26 12:07:35;;;;;;;;;;;333.10;1868.80;;;;;;5110292;28;19946;-81
2024/01/26 12:10:01;;;;;;;;;;;308.00;1920.00;;;;;;5103792;28;19918;-80
2024/01/26 12:12:27;;;;;;;;;;;333.00;1945.60;;;;;;5112654;28;20276;-80
2024/01/26 12:14:53;;;;;;;;;;;308.10;1894.40;;;;;;5109299;28;19908;-82
2024/01/26 12:17:18;;;;;;;;;;;307.90;1971.20;;;;;;5108419;28;20329;-81
2024/01/26 12:19:44;;;;;;;;;;;332.80;1945.60;;;;;;5104772;28;19914;-77
2024/01/26 12:22:09;;;;;;;;;;;332.90;1920.00;;;;;;5114214;27;19915;-79
2024/01/26 12:24:35;;;;;;;;;;;308.00;1920.00;;;;;;5107300;28;19958;-82
2024/01/26 12:27:02;;;;;;;;;;;307.60;1945.60;;;;;;5115670;28;19908;-82
2024/01/26 12:29:29;;;;;;;;;;;307.30;1971.20;;;;;;5107764;28;19907;-81
2024/01/26 12:32:08;;;;;;;;;;;307.60;1996.80;;;;;;5106262;28;19899;-81
2024/01/26 12:34:35;;;;;;;;;;;307.60;2022.40;;;;;;5113543;28;19994;-82
2024/01/26 12:37:01;;;;;;;;;;;307.60;2048.00;;;;;;5107450;28;19954;-80
2024/01/26 12:39:28;;;;;;;;;;;307.80;2022.40;;;;;;5102103;28;19955;-81
2024/01/26 12:41:57;;;;;;;;;;;307.60;2073.60;;;;;;5110904;28;19903;-77
2024/01/26 12:44:27;;;;;;;;;;;307.50;2099.20;;;;;;5103512;28;19944;-78
2024/01/26 12:46:53;;;;;;;;;;;307.30;2099.20;;;;;;5106211;28;19911;-77
2024/01/26 12:49:18;;;;;;;;;;;282.50;2073.60;;;;;;5107379;28;19912;-77
2024/01/26 12:51:45;;;;;;;;;;;282.50;2073.60;;;;;;5108360;28;19915;-77
2024/01/26 12:54:10;;;;;;;;;;;282.40;2124.80;;;;;;5100141;28;19920;-76
2024/01/26 12:56:36;;;;;;;;;;;282.10;2176.00;;;;;;5107207;28;19908;-77
2024/01/26 12:59:02;;;;;;;;;;;282.00;2201.60;;;;;;5097196;28;19907;-76
2024/01/26 13:01:29;;;;;;;;;;;282.10;2278.40;;;;;;5103105;28;20243;-77
2024/01/26 13:03:54;;;;;;;;;;;282.30;2278.40;;;;;;5097548;28;19969;-78
2024/01/26 13:06:20;;;;;;;;;;;282.40;2201.60;;;;;;5109691;28;20318;-78
2024/01/26 13:08:46;;;;;;;;;;;282.40;2227.20;;;;;;5106455;28;19912;-78
2024/01/26 13:11:11;;;;;;;;;;;282.30;2176.00;;;;;;5112841;28;20371;-78
2024/01/26 13:13:40;;;;;;;;;;;282.30;2201.60;;;;;;5106785;28;20365;-78
2024/01/26 13:16:05;;;;;;;;;;;282.30;2201.60;;;;;;5107104;28;19903;-79
2024/01/26 13:18:33;;;;;;;;;;;282.40;2227.20;;;;;;5107821;28;19937;-80
2024/01/26 13:20:59;;;;;;;;;;;282.30;2150.40;;;;;;5108908;28;19903;-78
2024/01/26 13:23:24;;;;;;;;;;;282.30;2201.60;;;;;;5110995;28;19907;-79
2024/01/26 13:25:52;;;;;;;;;;;282.30;2227.20;;;;;;5106994;28;19916;-78
2024/01/26 13:28:18;;;;;;;;;;;282.30;2252.80;;;;;;5111848;28;19915;-81
2024/01/26 13:30:44;;;;;;;;;;;282.50;2227.20;;;;;;5107003;28;19907;-79
2024/01/26 13:33:11;;;;;;;;;;;282.20;2150.40;;;;;;5103613;28;19912;-80
2024/01/26 13:35:36;;;;;;;;;;;282.10;2176.00;;;;;;5111696;28;20361;-78